sensor_id;sensor_type;location;lat;lon;timestamp;temperature;humidity
20815;DHT22;10568;48.176;16.316;2023-02-01T00:00:20;4.10;99.90
20815;DHT22;10568;48.176;16.316;2023-02-01T00:02:46;4.10;99.90
20815;DHT22;10568;48.176;16.316;2023-02-01T00:05:12;4.20;99.90
20815;DHT22;10568;48.176;16.316;2023-02-01T00:07:38;4.20;99.90
20815;DHT22;10568;48.176;16.316;2023-02-01T00:10:05;4.20;99.90
20815;DHT22;10568;48.176;16.316;2023-02-01T00:12:31;4.20;99.90
20815;DHT22;10568;48.176;16.316;2023-02-01T00:14:57;4.20;99.90
20815;DHT22;10568;48.176;16.316;2023-02-01T00:17:23;4.10;99.90
20815;DHT22;10568;48.176;16.316;2023-02-01T00:19:48;4.20;99.90
20815;DHT22;10568;48.176;16.316;2023-02-01T00:22:14;4.20;99.90
20815;DHT22;10568;48.176;16.316;2023-02-01T00:24:40;4.20;99.90
20815;DHT22;10568;48.176;16.316;2023-02-01T00:27:11;4.30;99.90
20815;DHT22;10568;48.176;16.316;2023-02-01T00:29:43;4.30;99.90
20815;DHT22;10568;48.176;16.316;2023-02-01T00:32:09;4.30;99.90
20815;DHT22;10568;48.176;16.316;2023-02-01T00:34:35;4.30;99.90
20815;DHT22;10568;48.176;16.316;2023-02-01T00:37:01;4.30;99.90
20815;DHT22;10568;48.176;16.316;2023-02-01T00:39:27;4.30;99.90
20815;DHT22;10568;48.176;16.316;2023-02-01T00:41:52;4.40;99.90
20815;DHT22;10568;48.176;16.316;2023-02-01T00:44:18;4.40;99.90
20815;DHT22;10568;48.176;16.316;2023-02-01T00:46:44;4.40;99.90
20815;DHT22;10568;48.176;16.316;2023-02-01T00:49:09;4.40;99.90
20815;DHT22;10568;48.176;16.316;2023-02-01T00:51:36;4.40;99.90
20815;DHT22;10568;48.176;16.316;2023-02-01T00:54:02;4.50;99.90
20815;DHT22;10568;48.176;16.316;2023-02-01T00:56:29;4.50;99.90
20815;DHT22;10568;48.176;16.316;2023-02-01T00:58:55;4.50;99.90
20815;DHT22;10568;48.176;16.316;2023-02-01T01:01:25;4.50;99.90
20815;DHT22;10568;48.176;16.316;2023-02-01T01:03:53;4.50;99.90
20815;DHT22;10568;48.176;16.316;2023-02-01T01:06:23;4.50;99.90
20815;DHT22;10568;48.176;16.316;2023-02-01T01:08:51;4.40;99.90
20815;DHT22;10568;48.176;16.316;2023-02-01T01:11:20;4.50;99.90
20815;DHT22;10568;48.176;16.316;2023-02-01T01:13:49;4.40;99.90
20815;DHT22;10568;48.176;16.316;2023-02-01T01:16:16;4.50;99.90
20815;DHT22;10568;48.176;16.316;2023-02-01T01:18:42;4.50;99.90
20815;DHT22;10568;48.176;16.316;2023-02-01T01:21:09;4.50;99.90
20815;DHT22;10568;48.176;16.316;2023-02-01T01:23:36;4.50;99.90
20815;DHT22;10568;48.176;16.316;2023-02-01T01:26:08;4.40;99.90
20815;DHT22;10568;48.176;16.316;2023-02-01T01:28:34;4.50;99.90
20815;DHT22;10568;48.176;16.316;2023-02-01T01:31:00;4.50;99.90
20815;DHT22;10568;48.176;16.316;2023-02-01T01:33:25;4.50;99.90
20815;DHT22;10568;48.176;16.316;2023-02-01T01:35:51;4.50;99.90
20815;DHT22;10568;48.176;16.316;2023-02-01T01:38:17;4.60;99.90
20815;DHT22;10568;48.176;16.316;2023-02-01T01:40:47;4.60;99.90
20815;DHT22;10568;48.176;16.316;2023-02-01T01:43:14;4.50;99.90
20815;DHT22;10568;48.176;16.316;2023-02-01T01:45:41;4.50;99.90
20815;DHT22;10568;48.176;16.316;2023-02-01T01:48:27;4.50;99.90
20815;DHT22;10568;48.176;16.316;2023-02-01T01:51:08;4.50;99.90
20815;DHT22;10568;48.176;16.316;2023-02-01T01:53:44;4.40;99.90
20815;DHT22;10568;48.176;16.316;2023-02-01T01:56:11;4.50;99.90
20815;DHT22;10568;48.176;16.316;2023-02-01T01:58:38;4.40;99.90
20815;DHT22;10568;48.176;16.316;2023-02-01T02:01:03;4.40;99.90
20815;DHT22;10568;48.176;16.316;2023-02-01T02:03:40;4.40;99.90
20815;DHT22;10568;48.176;16.316;2023-02-01T02:06:16;4.40;99.90
20815;DHT22;10568;48.176;16.316;2023-02-01T02:08:45;4.40;99.90
20815;DHT22;10568;48.176;16.316;2023-02-01T02:11:14;4.40;99.90
20815;DHT22;10568;48.176;16.316;2023-02-01T02:13:42;4.40;99.90
20815;DHT22;10568;48.176;16.316;2023-02-01T02:42:58;4.50;99.90
20815;DHT22;10568;48.176;16.316;2023-02-01T02:51:37;4.40;99.90
20815;DHT22;10568;48.176;16.316;2023-02-01T02:54:26;4.40;99.90
20815;DHT22;10568;48.176;16.316;2023-02-01T03:00:15;4.50;99.90
20815;DHT22;10568;48.176;16.316;2023-02-01T03:03:01;4.40;99.90
20815;DHT22;10568;48.176;16.316;2023-02-01T03:05:47;4.40;99.90
20815;DHT22;10568;48.176;16.316;2023-02-01T03:13:44;4.30;99.90
20815;DHT22;10568;48.176;16.316;2023-02-01T03:16:24;4.30;99.90
20815;DHT22;10568;48.176;16.316;2023-02-01T03:21:41;4.30;99.90
20815;DHT22;10568;48.176;16.316;2023-02-01T03:24:37;4.30;99.90
20815;DHT22;10568;48.176;16.316;2023-02-01T03:32:38;4.30;99.90
20815;DHT22;10568;48.176;16.316;2023-02-01T03:35:42;4.30;99.90
20815;DHT22;10568;48.176;16.316;2023-02-01T03:40:51;4.20;99.90
20815;DHT22;10568;48.176;16.316;2023-02-01T03:43:20;4.30;99.90
20815;DHT22;10568;48.176;16.316;2023-02-01T03:45:52;4.30;99.90
20815;DHT22;10568;48.176;16.316;2023-02-01T03:48:22;4.30;99.90
20815;DHT22;10568;48.176;16.316;2023-02-01T03:50:52;4.40;99.90
20815;DHT22;10568;48.176;16.316;2023-02-01T03:53:22;4.40;99.90
20815;DHT22;10568;48.176;16.316;2023-02-01T03:55:49;4.40;99.90
20815;DHT22;10568;48.176;16.316;2023-02-01T03:58:19;4.50;99.90
20815;DHT22;10568;48.176;16.316;2023-02-01T04:00:57;4.50;99.90
20815;DHT22;10568;48.176;16.316;2023-02-01T04:03:24;4.50;99.90
20815;DHT22;10568;48.176;16.316;2023-02-01T04:05:52;4.50;99.90
20815;DHT22;10568;48.176;16.316;2023-02-01T04:08:22;4.50;99.90
20815;DHT22;10568;48.176;16.316;2023-02-01T04:10:48;4.60;99.90
20815;DHT22;10568;48.176;16.316;2023-02-01T04:13:14;4.60;99.90
20815;DHT22;10568;48.176;16.316;2023-02-01T04:15:40;4.60;99.90
20815;DHT22;10568;48.176;16.316;2023-02-01T04:18:06;4.60;99.90
20815;DHT22;10568;48.176;16.316;2023-02-01T04:20:32;4.60;99.90
20815;DHT22;10568;48.176;16.316;2023-02-01T04:22:58;4.60;99.90
20815;DHT22;10568;48.176;16.316;2023-02-01T04:25:23;4.70;99.90
20815;DHT22;10568;48.176;16.316;2023-02-01T04:27:49;4.70;99.90
20815;DHT22;10568;48.176;16.316;2023-02-01T04:30:15;4.70;99.90
20815;DHT22;10568;48.176;16.316;2023-02-01T04:32:41;4.80;99.90
20815;DHT22;10568;48.176;16.316;2023-02-01T04:35:07;4.90;99.90
20815;DHT22;10568;48.176;16.316;2023-02-01T04:37:34;4.90;99.90
20815;DHT22;10568;48.176;16.316;2023-02-01T04:40:00;4.90;99.90
20815;DHT22;10568;48.176;16.316;2023-02-01T04:42:29;5.00;99.90
20815;DHT22;10568;48.176;16.316;2023-02-01T04:44:54;5.00;99.90
20815;DHT22;10568;48.176;16.316;2023-02-01T04:47:20;4.90;99.90
20815;DHT22;10568;48.176;16.316;2023-02-01T04:49:46;4.90;99.90
20815;DHT22;10568;48.176;16.316;2023-02-01T04:52:12;4.90;99.90
20815;DHT22;10568;48.176;16.316;2023-02-01T04:54:38;4.90;99.90
20815;DHT22;10568;48.176;16.316;2023-02-01T04:57:03;4.90;99.90
20815;DHT22;10568;48.176;16.316;2023-02-01T04:59:29;4.90;99.90
20815;DHT22;10568;48.176;16.316;2023-02-01T05:01:55;4.90;99.90
20815;DHT22;10568;48.176;16.316;2023-02-01T05:04:21;4.90;99.90
20815;DHT22;10568;48.176;16.316;2023-02-01T05:06:46;4.90;99.90
20815;DHT22;10568;48.176;16.316;2023-02-01T05:09:12;4.90;99.90
20815;DHT22;10568;48.176;16.316;2023-02-01T05:11:38;5.00;99.90
20815;DHT22;10568;48.176;16.316;2023-02-01T05:14:23;5.00;99.90
20815;DHT22;10568;48.176;16.316;2023-02-01T05:16:48;5.00;99.90
20815;DHT22;10568;48.176;16.316;2023-02-01T05:19:14;5.00;99.90
20815;DHT22;10568;48.176;16.316;2023-02-01T05:21:40;5.10;99.90
20815;DHT22;10568;48.176;16.316;2023-02-01T05:24:08;5.10;99.90
20815;DHT22;10568;48.176;16.316;2023-02-01T05:26:40;5.10;99.90
20815;DHT22;10568;48.176;16.316;2023-02-01T05:29:07;5.10;99.90
20815;DHT22;10568;48.176;16.316;2023-02-01T05:31:33;5.10;99.90
20815;DHT22;10568;48.176;16.316;2023-02-01T05:33:59;5.10;99.90
20815;DHT22;10568;48.176;16.316;2023-02-01T05:36:25;5.10;99.90
20815;DHT22;10568;48.176;16.316;2023-02-01T05:42:12;5.00;99.90
20815;DHT22;10568;48.176;16.316;2023-02-01T05:44:38;5.00;99.90
20815;DHT22;10568;48.176;16.316;2023-02-01T05:47:04;5.00;99.90
20815;DHT22;10568;48.176;16.316;2023-02-01T05:49:29;5.00;99.90
20815;DHT22;10568;48.176;16.316;2023-02-01T05:51:55;4.90;99.90
20815;DHT22;10568;48.176;16.316;2023-02-01T05:54:21;5.00;99.90
20815;DHT22;10568;48.176;16.316;2023-02-01T05:56:47;5.00;99.90
20815;DHT22;10568;48.176;16.316;2023-02-01T05:59:13;5.10;99.90
20815;DHT22;10568;48.176;16.316;2023-02-01T06:01:38;5.00;99.90
20815;DHT22;10568;48.176;16.316;2023-02-01T06:04:04;5.00;99.90
20815;DHT22;10568;48.176;16.316;2023-02-01T06:06:30;5.10;99.90
20815;DHT22;10568;48.176;16.316;2023-02-01T06:08:56;5.10;99.90
20815;DHT22;10568;48.176;16.316;2023-02-01T06:11:22;5.10;99.90
20815;DHT22;10568;48.176;16.316;2023-02-01T06:13:47;5.10;99.90
20815;DHT22;10568;48.176;16.316;2023-02-01T06:16:13;5.20;99.90
20815;DHT22;10568;48.176;16.316;2023-02-01T06:18:40;5.20;99.90
20815;DHT22;10568;48.176;16.316;2023-02-01T06:21:07;5.20;99.90
20815;DHT22;10568;48.176;16.316;2023-02-01T06:23:33;5.20;99.90
20815;DHT22;10568;48.176;16.316;2023-02-01T06:26:04;5.30;99.90
20815;DHT22;10568;48.176;16.316;2023-02-01T06:28:31;5.30;99.90
20815;DHT22;10568;48.176;16.316;2023-02-01T06:30:57;5.30;99.90
20815;DHT22;10568;48.176;16.316;2023-02-01T06:33:24;5.30;99.90
20815;DHT22;10568;48.176;16.316;2023-02-01T06:35:57;5.40;99.90
20815;DHT22;10568;48.176;16.316;2023-02-01T06:38:24;5.40;99.90
20815;DHT22;10568;48.176;16.316;2023-02-01T06:40:55;5.40;99.90
20815;DHT22;10568;48.176;16.316;2023-02-01T06:43:23;5.40;99.90
20815;DHT22;10568;48.176;16.316;2023-02-01T06:45:50;5.40;99.90
20815;DHT22;10568;48.176;16.316;2023-02-01T06:48:15;5.50;99.90
20815;DHT22;10568;48.176;16.316;2023-02-01T06:50:41;5.50;99.90
20815;DHT22;10568;48.176;16.316;2023-02-01T06:53:07;5.50;99.90
20815;DHT22;10568;48.176;16.316;2023-02-01T06:55:33;5.50;99.90
20815;DHT22;10568;48.176;16.316;2023-02-01T06:57:58;5.50;99.90
20815;DHT22;10568;48.176;16.316;2023-02-01T07:00:24;5.40;99.90
20815;DHT22;10568;48.176;16.316;2023-02-01T07:02:51;5.40;99.90
20815;DHT22;10568;48.176;16.316;2023-02-01T07:05:16;5.40;99.90
20815;DHT22;10568;48.176;16.316;2023-02-01T07:07:42;5.40;99.90
20815;DHT22;10568;48.176;16.316;2023-02-01T07:10:09;5.40;99.90
20815;DHT22;10568;48.176;16.316;2023-02-01T07:12:35;5.30;99.90
20815;DHT22;10568;48.176;16.316;2023-02-01T07:15:02;5.30;99.90
20815;DHT22;10568;48.176;16.316;2023-02-01T07:17:28;5.30;99.90
20815;DHT22;10568;48.176;16.316;2023-02-01T07:19:57;5.40;99.90
20815;DHT22;10568;48.176;16.316;2023-02-01T07:22:25;5.40;99.90
20815;DHT22;10568;48.176;16.316;2023-02-01T07:24:51;5.40;99.90
20815;DHT22;10568;48.176;16.316;2023-02-01T07:27:17;5.50;99.90
20815;DHT22;10568;48.176;16.316;2023-02-01T07:29:42;5.50;99.90
20815;DHT22;10568;48.176;16.316;2023-02-01T07:32:08;5.50;99.90
20815;DHT22;10568;48.176;16.316;2023-02-01T07:34:34;5.50;99.90
20815;DHT22;10568;48.176;16.316;2023-02-01T07:37:00;5.60;99.90
20815;DHT22;10568;48.176;16.316;2023-02-01T07:39:26;5.60;99.90
20815;DHT22;10568;48.176;16.316;2023-02-01T07:41:53;5.60;99.90
20815;DHT22;10568;48.176;16.316;2023-02-01T07:44:19;5.70;99.90
20815;DHT22;10568;48.176;16.316;2023-02-01T07:46:49;5.70;99.90
20815;DHT22;10568;48.176;16.316;2023-02-01T07:49:14;5.70;99.90
20815;DHT22;10568;48.176;16.316;2023-02-01T07:51:40;5.70;99.90
20815;DHT22;10568;48.176;16.316;2023-02-01T07:54:06;5.70;99.90
20815;DHT22;10568;48.176;16.316;2023-02-01T07:56:32;5.70;99.90
20815;DHT22;10568;48.176;16.316;2023-02-01T07:58:58;5.70;99.90
20815;DHT22;10568;48.176;16.316;2023-02-01T08:01:38;5.80;99.90
20815;DHT22;10568;48.176;16.316;2023-02-01T08:04:04;5.80;99.90
20815;DHT22;10568;48.176;16.316;2023-02-01T08:06:32;5.80;99.90
20815;DHT22;10568;48.176;16.316;2023-02-01T08:09:00;5.80;99.90
20815;DHT22;10568;48.176;16.316;2023-02-01T08:11:26;5.80;99.90
20815;DHT22;10568;48.176;16.316;2023-02-01T08:13:52;5.70;99.90
20815;DHT22;10568;48.176;16.316;2023-02-01T08:16:19;5.70;99.90
20815;DHT22;10568;48.176;16.316;2023-02-01T08:18:46;5.60;99.90
20815;DHT22;10568;48.176;16.316;2023-02-01T08:21:14;5.60;99.90
20815;DHT22;10568;48.176;16.316;2023-02-01T08:23:41;5.60;99.90
20815;DHT22;10568;48.176;16.316;2023-02-01T08:26:14;5.70;99.90
20815;DHT22;10568;48.176;16.316;2023-02-01T08:28:42;5.70;99.90
20815;DHT22;10568;48.176;16.316;2023-02-01T08:31:11;5.80;99.90
20815;DHT22;10568;48.176;16.316;2023-02-01T08:33:37;5.80;99.90
20815;DHT22;10568;48.176;16.316;2023-02-01T08:36:06;5.90;99.90
20815;DHT22;10568;48.176;16.316;2023-02-01T08:38:34;6.00;99.90
20815;DHT22;10568;48.176;16.316;2023-02-01T08:41:05;6.10;99.90
20815;DHT22;10568;48.176;16.316;2023-02-01T08:43:31;6.10;99.90
20815;DHT22;10568;48.176;16.316;2023-02-01T08:45:57;6.20;99.90
20815;DHT22;10568;48.176;16.316;2023-02-01T08:48:22;6.20;99.90
20815;DHT22;10568;48.176;16.316;2023-02-01T08:50:48;6.30;99.90
20815;DHT22;10568;48.176;16.316;2023-02-01T08:53:14;6.30;99.90
20815;DHT22;10568;48.176;16.316;2023-02-01T08:55:40;6.30;99.90
20815;DHT22;10568;48.176;16.316;2023-02-01T08:58:05;6.30;99.90
20815;DHT22;10568;48.176;16.316;2023-02-01T09:00:31;6.30;99.90
20815;DHT22;10568;48.176;16.316;2023-02-01T09:02:57;6.30;99.90
20815;DHT22;10568;48.176;16.316;2023-02-01T09:05:24;6.30;99.90
20815;DHT22;10568;48.176;16.316;2023-02-01T09:07:52;6.30;99.90
20815;DHT22;10568;48.176;16.316;2023-02-01T09:10:18;6.30;99.90
20815;DHT22;10568;48.176;16.316;2023-02-01T09:12:44;6.30;99.90
20815;DHT22;10568;48.176;16.316;2023-02-01T09:15:10;6.30;99.90
20815;DHT22;10568;48.176;16.316;2023-02-01T09:17:36;6.30;99.90
20815;DHT22;10568;48.176;16.316;2023-02-01T09:20:03;6.20;99.90
20815;DHT22;10568;48.176;16.316;2023-02-01T09:22:30;6.20;99.90
20815;DHT22;10568;48.176;16.316;2023-02-01T09:24:55;6.20;99.90
20815;DHT22;10568;48.176;16.316;2023-02-01T09:27:21;6.10;99.90
20815;DHT22;10568;48.176;16.316;2023-02-01T09:29:47;6.10;99.90
20815;DHT22;10568;48.176;16.316;2023-02-01T09:32:19;6.20;99.90
20815;DHT22;10568;48.176;16.316;2023-02-01T09:34:45;6.20;99.90
20815;DHT22;10568;48.176;16.316;2023-02-01T09:37:11;6.20;99.90
20815;DHT22;10568;48.176;16.316;2023-02-01T09:39:37;6.20;99.90
20815;DHT22;10568;48.176;16.316;2023-02-01T09:45:35;6.10;99.90
20815;DHT22;10568;48.176;16.316;2023-02-01T09:48:32;6.10;99.90
20815;DHT22;10568;48.176;16.316;2023-02-01T09:51:02;6.00;99.90
20815;DHT22;10568;48.176;16.316;2023-02-01T09:53:42;5.90;99.90
20815;DHT22;10568;48.176;16.316;2023-02-01T09:56:15;5.90;99.90
20815;DHT22;10568;48.176;16.316;2023-02-01T09:58:59;5.80;99.90
20815;DHT22;10568;48.176;16.316;2023-02-01T10:01:27;5.70;99.90
20815;DHT22;10568;48.176;16.316;2023-02-01T10:04:08;5.80;99.90
20815;DHT22;10568;48.176;16.316;2023-02-01T10:09:25;5.80;99.90
20815;DHT22;10568;48.176;16.316;2023-02-01T10:12:28;5.90;99.90
20815;DHT22;10568;48.176;16.316;2023-02-01T10:26:22;6.30;99.90
20815;DHT22;10568;48.176;16.316;2023-02-01T10:28:57;6.40;99.90
20815;DHT22;10568;48.176;16.316;2023-02-01T10:31:28;6.60;99.90
20815;DHT22;10568;48.176;16.316;2023-02-01T10:33:59;6.70;99.90
20815;DHT22;10568;48.176;16.316;2023-02-01T10:36:28;6.80;99.90
20815;DHT22;10568;48.176;16.316;2023-02-01T10:38:55;6.90;99.90
20815;DHT22;10568;48.176;16.316;2023-02-01T10:41:23;7.00;99.90
20815;DHT22;10568;48.176;16.316;2023-02-01T10:43:55;7.20;99.90
20815;DHT22;10568;48.176;16.316;2023-02-01T10:46:23;7.30;99.90
20815;DHT22;10568;48.176;16.316;2023-02-01T10:48:50;7.50;99.90
20815;DHT22;10568;48.176;16.316;2023-02-01T10:51:28;7.60;99.90
20815;DHT22;10568;48.176;16.316;2023-02-01T10:54:02;7.50;99.90
20815;DHT22;10568;48.176;16.316;2023-02-01T10:56:29;7.40;99.90
20815;DHT22;10568;48.176;16.316;2023-02-01T10:59:06;7.30;99.90
20815;DHT22;10568;48.176;16.316;2023-02-01T11:01:39;7.10;99.90
20815;DHT22;10568;48.176;16.316;2023-02-01T11:04:09;6.70;99.90
20815;DHT22;10568;48.176;16.316;2023-02-01T11:06:41;6.60;99.90
20815;DHT22;10568;48.176;16.316;2023-02-01T11:11:58;6.40;99.90
20815;DHT22;10568;48.176;16.316;2023-02-01T11:16:54;6.40;99.90
20815;DHT22;10568;48.176;16.316;2023-02-01T11:19:21;6.50;99.90
20815;DHT22;10568;48.176;16.316;2023-02-01T11:21:58;6.40;99.90
20815;DHT22;10568;48.176;16.316;2023-02-01T11:24:31;6.20;99.90
20815;DHT22;10568;48.176;16.316;2023-02-01T11:27:01;6.10;99.90
20815;DHT22;10568;48.176;16.316;2023-02-01T11:29:36;5.90;99.90
20815;DHT22;10568;48.176;16.316;2023-02-01T11:32:03;5.90;99.90
20815;DHT22;10568;48.176;16.316;2023-02-01T11:34:47;5.90;99.90
20815;DHT22;10568;48.176;16.316;2023-02-01T11:37:28;5.80;99.90
20815;DHT22;10568;48.176;16.316;2023-02-01T11:39:56;5.70;99.90
20815;DHT22;10568;48.176;16.316;2023-02-01T11:42:22;5.60;99.90
20815;DHT22;10568;48.176;16.316;2023-02-01T11:44:49;5.50;99.90
20815;DHT22;10568;48.176;16.316;2023-02-01T11:47:27;5.50;99.90
20815;DHT22;10568;48.176;16.316;2023-02-01T11:49:59;5.50;99.90
20815;DHT22;10568;48.176;16.316;2023-02-01T12:14:44;6.10;99.90
20815;DHT22;10568;48.176;16.316;2023-02-01T12:39:18;6.20;99.90
20815;DHT22;10568;48.176;16.316;2023-02-01T12:42:32;6.30;99.90
20815;DHT22;10568;48.176;16.316;2023-02-01T12:45:20;6.50;99.90
20815;DHT22;10568;48.176;16.316;2023-02-01T12:47:59;6.60;99.90
20815;DHT22;10568;48.176;16.316;2023-02-01T12:55:46;6.80;99.90
20815;DHT22;10568;48.176;16.316;2023-02-01T13:01:26;6.80;99.90
20815;DHT22;10568;48.176;16.316;2023-02-01T13:03:55;6.70;99.90
20815;DHT22;10568;48.176;16.316;2023-02-01T13:06:32;6.60;99.90
20815;DHT22;10568;48.176;16.316;2023-02-01T13:09:27;6.60;99.90
20815;DHT22;10568;48.176;16.316;2023-02-01T13:11:59;6.60;99.90
20815;DHT22;10568;48.176;16.316;2023-02-01T13:14:51;6.60;99.90
20815;DHT22;10568;48.176;16.316;2023-02-01T13:17:29;6.50;99.90
20815;DHT22;10568;48.176;16.316;2023-02-01T13:22:36;6.70;99.90
20815;DHT22;10568;48.176;16.316;2023-02-01T13:27:35;6.80;99.90
20815;DHT22;10568;48.176;16.316;2023-02-01T13:35:38;6.80;99.90
20815;DHT22;10568;48.176;16.316;2023-02-01T13:41:30;6.70;99.90
20815;DHT22;10568;48.176;16.316;2023-02-01T13:44:11;6.50;99.90
20815;DHT22;10568;48.176;16.316;2023-02-01T13:46:45;6.40;99.90
20815;DHT22;10568;48.176;16.316;2023-02-01T13:49:24;6.30;99.90
20815;DHT22;10568;48.176;16.316;2023-02-01T13:51:58;6.20;99.90
20815;DHT22;10568;48.176;16.316;2023-02-01T13:54:28;6.10;99.90
20815;DHT22;10568;48.176;16.316;2023-02-01T13:56:56;6.20;99.90
20815;DHT22;10568;48.176;16.316;2023-02-01T14:02:43;6.10;99.90
20815;DHT22;10568;48.176;16.316;2023-02-01T14:05:53;6.00;99.90
20815;DHT22;10568;48.176;16.316;2023-02-01T14:13:41;5.90;99.90
20815;DHT22;10568;48.176;16.316;2023-02-01T14:16:10;5.90;99.90
20815;DHT22;10568;48.176;16.316;2023-02-01T14:21:31;6.00;99.90
20815;DHT22;10568;48.176;16.316;2023-02-01T14:24:17;5.90;99.90
20815;DHT22;10568;48.176;16.316;2023-02-01T14:26:48;5.90;99.90
20815;DHT22;10568;48.176;16.316;2023-02-01T14:34:26;5.70;99.90
20815;DHT22;10568;48.176;16.316;2023-02-01T14:37:02;5.60;99.90
20815;DHT22;10568;48.176;16.316;2023-02-01T14:42:26;5.60;99.90
20815;DHT22;10568;48.176;16.316;2023-02-01T14:44:56;5.50;99.90
20815;DHT22;10568;48.176;16.316;2023-02-01T14:47:40;5.50;99.90
20815;DHT22;10568;48.176;16.316;2023-02-01T14:52:39;5.40;99.90
20815;DHT22;10568;48.176;16.316;2023-02-01T14:57:54;5.40;99.90
20815;DHT22;10568;48.176;16.316;2023-02-01T15:00:29;5.40;99.90
20815;DHT22;10568;48.176;16.316;2023-02-01T15:05:55;5.30;99.90
20815;DHT22;10568;48.176;16.316;2023-02-01T15:08:25;5.30;99.90
20815;DHT22;10568;48.176;16.316;2023-02-01T15:10:53;5.30;99.90
20815;DHT22;10568;48.176;16.316;2023-02-01T15:16:00;5.20;99.90
20815;DHT22;10568;48.176;16.316;2023-02-01T15:18:26;5.20;99.90
20815;DHT22;10568;48.176;16.316;2023-02-01T15:20:59;5.20;99.90
20815;DHT22;10568;48.176;16.316;2023-02-01T15:23:26;5.20;99.90
20815;DHT22;10568;48.176;16.316;2023-02-01T15:25:53;5.20;99.90
20815;DHT22;10568;48.176;16.316;2023-02-01T15:28:19;5.20;99.90
20815;DHT22;10568;48.176;16.316;2023-02-01T15:31:11;5.20;99.90
20815;DHT22;10568;48.176;16.316;2023-02-01T15:33:37;5.10;99.90
20815;DHT22;10568;48.176;16.316;2023-02-01T15:38:41;5.20;99.90
20815;DHT22;10568;48.176;16.316;2023-02-01T15:46:10;5.10;99.90
20815;DHT22;10568;48.176;16.316;2023-02-01T15:48:40;5.10;99.90
20815;DHT22;10568;48.176;16.316;2023-02-01T15:51:12;5.10;99.90
20815;DHT22;10568;48.176;16.316;2023-02-01T15:53:44;5.10;99.90
20815;DHT22;10568;48.176;16.316;2023-02-01T15:56:12;5.10;99.90
20815;DHT22;10568;48.176;16.316;2023-02-01T15:58:42;5.10;99.90
20815;DHT22;10568;48.176;16.316;2023-02-01T16:01:11;5.10;99.90
20815;DHT22;10568;48.176;16.316;2023-02-01T16:03:46;5.10;99.90
20815;DHT22;10568;48.176;16.316;2023-02-01T16:08:59;5.10;99.90
20815;DHT22;10568;48.176;16.316;2023-02-01T16:11:39;5.10;99.90
20815;DHT22;10568;48.176;16.316;2023-02-01T16:14:06;5.20;99.90
20815;DHT22;10568;48.176;16.316;2023-02-01T16:16:32;5.20;99.90
20815;DHT22;10568;48.176;16.316;2023-02-01T16:18:58;5.20;99.90
20815;DHT22;10568;48.176;16.316;2023-02-01T16:21:23;5.30;99.90
20815;DHT22;10568;48.176;16.316;2023-02-01T16:23:50;5.40;99.90
20815;DHT22;10568;48.176;16.316;2023-02-01T16:26:17;5.40;99.90
20815;DHT22;10568;48.176;16.316;2023-02-01T16:28:43;5.40;99.90
20815;DHT22;10568;48.176;16.316;2023-02-01T16:31:12;5.50;99.90
20815;DHT22;10568;48.176;16.316;2023-02-01T16:33:49;5.50;99.90
20815;DHT22;10568;48.176;16.316;2023-02-01T16:36:16;5.50;99.90
20815;DHT22;10568;48.176;16.316;2023-02-01T16:38:42;5.60;99.90
20815;DHT22;10568;48.176;16.316;2023-02-01T16:41:13;5.50;99.90
20815;DHT22;10568;48.176;16.316;2023-02-01T16:43:40;5.50;99.90
20815;DHT22;10568;48.176;16.316;2023-02-01T16:46:15;5.50;99.90
20815;DHT22;10568;48.176;16.316;2023-02-01T16:48:45;5.40;99.90
20815;DHT22;10568;48.176;16.316;2023-02-01T16:51:16;5.40;99.90
20815;DHT22;10568;48.176;16.316;2023-02-01T16:53:43;5.40;99.90
20815;DHT22;10568;48.176;16.316;2023-02-01T16:56:16;5.40;99.90
20815;DHT22;10568;48.176;16.316;2023-02-01T16:58:43;5.40;99.90
20815;DHT22;10568;48.176;16.316;2023-02-01T17:01:11;5.50;99.90
20815;DHT22;10568;48.176;16.316;2023-02-01T17:03:37;5.50;99.90
20815;DHT22;10568;48.176;16.316;2023-02-01T17:06:03;5.50;99.90
20815;DHT22;10568;48.176;16.316;2023-02-01T17:08:33;5.50;99.90
20815;DHT22;10568;48.176;16.316;2023-02-01T17:10:59;5.50;99.90
20815;DHT22;10568;48.176;16.316;2023-02-01T17:13:26;5.50;99.90
20815;DHT22;10568;48.176;16.316;2023-02-01T17:15:57;5.60;99.90
20815;DHT22;10568;48.176;16.316;2023-02-01T17:18:24;5.60;99.90
20815;DHT22;10568;48.176;16.316;2023-02-01T17:20:57;5.60;99.90
20815;DHT22;10568;48.176;16.316;2023-02-01T17:23:24;5.50;99.90
20815;DHT22;10568;48.176;16.316;2023-02-01T17:25:51;5.50;99.90
20815;DHT22;10568;48.176;16.316;2023-02-01T17:28:18;5.60;99.90
20815;DHT22;10568;48.176;16.316;2023-02-01T17:30:44;5.50;99.90
20815;DHT22;10568;48.176;16.316;2023-02-01T17:33:31;5.50;99.90
20815;DHT22;10568;48.176;16.316;2023-02-01T17:35:59;5.50;99.90
20815;DHT22;10568;48.176;16.316;2023-02-01T17:38:25;5.50;99.90
20815;DHT22;10568;48.176;16.316;2023-02-01T17:40:52;5.40;99.90
20815;DHT22;10568;48.176;16.316;2023-02-01T17:43:21;5.40;99.90
20815;DHT22;10568;48.176;16.316;2023-02-01T17:46:15;5.40;99.90
20815;DHT22;10568;48.176;16.316;2023-02-01T17:48:41;5.40;99.90
20815;DHT22;10568;48.176;16.316;2023-02-01T17:51:27;5.30;99.90
20815;DHT22;10568;48.176;16.316;2023-02-01T17:53:54;5.30;99.90
20815;DHT22;10568;48.176;16.316;2023-02-01T17:56:22;5.30;99.90
20815;DHT22;10568;48.176;16.316;2023-02-01T17:58:48;5.30;99.90
20815;DHT22;10568;48.176;16.316;2023-02-01T18:01:20;5.30;99.90
20815;DHT22;10568;48.176;16.316;2023-02-01T18:03:47;5.30;99.90
20815;DHT22;10568;48.176;16.316;2023-02-01T18:06:15;5.30;99.90
20815;DHT22;10568;48.176;16.316;2023-02-01T18:08:42;5.30;99.90
20815;DHT22;10568;48.176;16.316;2023-02-01T18:11:20;5.30;99.90
20815;DHT22;10568;48.176;16.316;2023-02-01T18:13:47;5.30;99.90
20815;DHT22;10568;48.176;16.316;2023-02-01T18:18:47;5.30;99.90
20815;DHT22;10568;48.176;16.316;2023-02-01T18:21:17;5.30;99.90
20815;DHT22;10568;48.176;16.316;2023-02-01T18:23:44;5.30;99.90
20815;DHT22;10568;48.176;16.316;2023-02-01T18:26:16;5.40;99.90
20815;DHT22;10568;48.176;16.316;2023-02-01T18:28:42;5.40;99.90
20815;DHT22;10568;48.176;16.316;2023-02-01T18:31:27;5.40;99.90
20815;DHT22;10568;48.176;16.316;2023-02-01T18:33:56;5.40;99.90
20815;DHT22;10568;48.176;16.316;2023-02-01T18:36:22;5.40;99.90
20815;DHT22;10568;48.176;16.316;2023-02-01T18:38:49;5.40;99.90
20815;DHT22;10568;48.176;16.316;2023-02-01T18:41:18;5.50;99.90
20815;DHT22;10568;48.176;16.316;2023-02-01T18:43:49;5.50;99.90
20815;DHT22;10568;48.176;16.316;2023-02-01T18:46:16;5.50;99.90
20815;DHT22;10568;48.176;16.316;2023-02-01T18:48:43;5.50;99.90
20815;DHT22;10568;48.176;16.316;2023-02-01T18:51:16;5.50;99.90
20815;DHT22;10568;48.176;16.316;2023-02-01T18:53:44;5.50;99.90